createdAt,value
2018-06-19T00:02:20.066Z,84.76
2018-06-19T00:04:48.713Z,84.33
2018-06-19T00:07:17.527Z,83.79
2018-06-19T00:09:46.211Z,83.67
2018-06-19T00:12:14.910Z,83.97
2018-06-19T00:14:43.612Z,83.78
2018-06-19T00:17:12.361Z,84.67
2018-06-19T00:19:45.425Z,84.62
2018-06-19T00:22:14.160Z,84.09
2018-06-19T00:24:42.838Z,84.22
2018-06-19T00:27:12.426Z,84.85
2018-06-19T00:29:41.115Z,84.80
2018-06-19T00:32:09.800Z,84.41
2018-06-19T00:34:38.536Z,83.92
2018-06-19T00:37:07.228Z,83.90
2018-06-19T00:39:35.854Z,84.77
2018-06-19T00:42:04.538Z,84.63
2018-06-19T00:44:33.208Z,84.62
2018-06-19T00:47:01.855Z,84.18
2018-06-19T00:49:30.562Z,84.76
2018-06-19T00:51:59.182Z,84.53
2018-06-19T00:54:27.902Z,85.12
2018-06-19T00:56:59.824Z,84.83
2018-06-19T00:59:28.550Z,84.32
2018-06-19T01:01:58.797Z,84.37
2018-06-19T01:04:27.439Z,84.02
2018-06-19T01:06:56.105Z,83.36
2018-06-19T01:09:24.721Z,83.42
2018-06-19T01:11:53.425Z,83.61
2018-06-19T01:14:22.099Z,84.44
2018-06-19T01:16:50.737Z,83.95
2018-06-19T01:19:19.399Z,84.06
2018-06-19T01:21:48.010Z,83.94
2018-06-19T01:24:16.673Z,83.48
2018-06-19T01:26:45.322Z,83.12
2018-06-19T01:29:14.006Z,83.83
2018-06-19T01:31:42.645Z,83.85
2018-06-19T01:34:11.291Z,83.68
2018-06-19T01:36:39.926Z,82.97
2018-06-19T01:39:10.204Z,83.50
2018-06-19T01:41:38.902Z,82.71
2018-06-19T01:44:07.619Z,82.58
2018-06-19T01:46:36.237Z,82.27
2018-06-19T01:49:05.088Z,81.97
2018-06-19T01:51:33.780Z,82.05
2018-06-19T01:54:02.425Z,82.11
2018-06-19T01:56:31.059Z,82.42
2018-06-19T01:58:59.743Z,82.22
2018-06-19T02:01:28.358Z,82.26
2018-06-19T02:03:56.997Z,82.34
2018-06-19T02:06:25.623Z,82.76
2018-06-19T02:08:54.287Z,82.73
2018-06-19T02:11:23.003Z,82.31
2018-06-19T02:13:51.651Z,83.47
2018-06-19T02:16:20.323Z,83.34
2018-06-19T02:18:49.017Z,83.12
2018-06-19T02:21:17.683Z,83.12
2018-06-19T02:23:46.294Z,82.93
2018-06-19T02:26:15.000Z,82.26
2018-06-19T02:28:43.724Z,82.74
2018-06-19T02:31:12.416Z,82.77
2018-06-19T02:33:41.034Z,84.39
2018-06-19T02:36:09.729Z,84.32
2018-06-19T02:38:38.420Z,84.16
2018-06-19T02:41:07.156Z,84.45
2018-06-19T02:43:35.819Z,84.66
2018-06-19T02:46:04.484Z,84.37
2018-06-19T02:48:33.117Z,84.31
2018-06-19T02:51:01.736Z,83.82
2018-06-19T02:53:30.424Z,83.75
2018-06-19T02:55:59.120Z,83.54
2018-06-19T02:58:27.759Z,84.02
2018-06-19T03:00:56.410Z,83.13
2018-06-19T03:03:25.098Z,83.25
2018-06-19T03:05:53.746Z,82.70
2018-06-19T03:08:22.400Z,83.46
2018-06-19T03:10:51.026Z,83.80
2018-06-19T03:13:19.747Z,83.77
2018-06-19T03:15:48.445Z,83.39
2018-06-19T03:18:17.104Z,82.45
2018-06-19T03:20:45.789Z,81.75
2018-06-19T03:23:14.444Z,82.37
2018-06-19T03:25:43.074Z,81.98
2018-06-19T03:28:11.737Z,82.09
2018-06-19T03:30:40.463Z,83.19
2018-06-19T03:33:09.291Z,83.50
2018-06-19T03:35:37.917Z,82.88
2018-06-19T03:38:06.616Z,82.45
2018-06-19T03:40:35.261Z,82.96
2018-06-19T03:43:04.041Z,82.77
2018-06-19T03:45:32.731Z,83.30
2018-06-19T03:48:01.430Z,83.27
2018-06-19T03:50:30.074Z,83.19
2018-06-19T03:52:58.756Z,83.44
2018-06-19T03:55:27.446Z,83.73
2018-06-19T03:57:56.127Z,83.11
2018-06-19T04:00:24.837Z,83.15
2018-06-19T04:02:53.510Z,82.55
2018-06-19T04:05:22.203Z,82.19
2018-06-19T04:07:50.976Z,82.84
2018-06-19T04:10:19.692Z,82.10
2018-06-19T04:12:48.358Z,83.13
2018-06-19T04:15:17.098Z,81.40
2018-06-19T04:17:45.737Z,81.13
2018-06-19T04:20:14.400Z,82.37
2018-06-19T04:22:43.056Z,83.23
2018-06-19T04:25:11.748Z,82.73
2018-06-19T04:27:40.458Z,82.58
2018-06-19T04:30:09.134Z,81.97
2018-06-19T04:32:37.968Z,81.71
2018-06-19T04:35:06.650Z,81.61
2018-06-19T04:37:35.314Z,81.60
2018-06-19T04:40:04.612Z,82.01
2018-06-19T04:42:33.334Z,82.31
2018-06-19T04:45:02.059Z,82.72
2018-06-19T04:47:30.731Z,83.31
2018-06-19T04:49:59.439Z,82.25
2018-06-19T04:52:28.167Z,81.21
2018-06-19T04:54:56.823Z,80.99
2018-06-19T04:57:25.538Z,82.04
2018-06-19T04:59:54.207Z,82.87
2018-06-19T05:02:23.163Z,81.50
2018-06-19T05:04:51.811Z,81.23
2018-06-19T05:07:20.501Z,80.99
2018-06-19T05:09:49.182Z,81.58
2018-06-19T05:12:17.828Z,81.42
2018-06-19T05:14:46.492Z,80.90
2018-06-19T05:17:15.193Z,81.37
2018-06-19T05:19:43.912Z,79.80
2018-06-19T05:22:12.575Z,80.77
2018-06-19T05:24:41.494Z,79.87
2018-06-19T05:27:10.195Z,78.63
2018-06-19T05:29:38.881Z,79.02
2018-06-19T05:32:07.547Z,78.77
2018-06-19T05:34:36.217Z,78.65
2018-06-19T05:37:04.924Z,79.12
2018-06-19T05:39:33.677Z,77.53
2018-06-19T05:42:02.326Z,77.93
2018-06-19T05:44:30.996Z,78.24
2018-06-19T05:46:59.745Z,77.46
2018-06-19T05:49:28.388Z,76.75
2018-06-19T05:51:56.989Z,77.37
2018-06-19T05:54:25.717Z,77.54
2018-06-19T05:56:54.371Z,77.64
2018-06-19T05:59:23.059Z,77.00
2018-06-19T06:01:51.784Z,77.15
2018-06-19T06:04:20.514Z,77.01
2018-06-19T06:06:49.178Z,76.43
2018-06-19T06:09:17.878Z,74.83
2018-06-19T06:11:46.622Z,75.85
2018-06-19T06:14:15.390Z,75.01
2018-06-19T06:16:44.136Z,75.29
2018-06-19T06:19:12.780Z,74.53
2018-06-19T06:21:41.470Z,74.50
2018-06-19T06:24:10.145Z,74.12
2018-06-19T06:26:38.845Z,73.75
2018-06-19T06:29:07.673Z,72.38
2018-06-19T06:31:36.455Z,73.00
2018-06-19T06:34:05.150Z,71.75
2018-06-19T06:36:33.771Z,71.71
2018-06-19T06:39:03.600Z,70.17
2018-06-19T06:41:32.294Z,71.66
2018-06-19T06:44:01.008Z,71.41
2018-06-19T06:46:29.797Z,70.04
2018-06-19T06:48:58.537Z,70.12
2018-06-19T06:51:27.185Z,70.31
2018-06-19T06:53:56.078Z,70.55
2018-06-19T06:56:24.742Z,69.82
2018-06-19T06:58:53.862Z,68.79
2018-06-19T07:01:22.631Z,69.58
2018-06-19T07:03:51.286Z,67.88
2018-06-19T07:06:19.910Z,68.89
2018-06-19T07:08:48.608Z,67.83
2018-06-19T07:11:17.290Z,66.92
2018-06-19T07:13:45.963Z,67.79
2018-06-19T07:16:14.656Z,68.30
2018-06-19T07:18:43.626Z,67.21
2018-06-19T07:21:12.347Z,65.86
2018-06-19T07:23:40.991Z,66.60
2018-06-19T07:26:09.761Z,67.64
2018-06-19T07:28:38.407Z,66.07
2018-06-19T07:31:07.107Z,64.85
2018-06-19T07:33:35.740Z,65.65
2018-06-19T07:36:04.396Z,66.55
2018-06-19T07:38:34.035Z,66.98
2018-06-19T07:41:02.801Z,66.11
2018-06-19T07:43:31.492Z,65.90
2018-06-19T07:46:00.263Z,65.18
2018-06-19T07:48:28.906Z,65.04
2018-06-19T07:50:57.732Z,64.56
2018-06-19T07:53:26.396Z,65.12
2018-06-19T07:55:55.054Z,63.06
2018-06-19T07:58:23.781Z,64.68
2018-06-19T08:00:52.491Z,63.41
2018-06-19T08:03:21.151Z,62.17
2018-06-19T08:05:49.844Z,60.91
2018-06-19T08:08:18.482Z,62.42
2018-06-19T08:10:47.167Z,62.83
2018-06-19T08:13:15.795Z,63.24
2018-06-19T08:15:44.511Z,60.55
2018-06-19T08:18:13.184Z,63.12
2018-06-19T08:20:41.821Z,61.56
2018-06-19T08:23:10.530Z,61.69
2018-06-19T08:25:39.194Z,61.92
2018-06-19T08:28:07.929Z,61.75
2018-06-19T08:30:36.644Z,60.44
2018-06-19T08:33:05.344Z,60.44
2018-06-19T08:35:34.001Z,61.76
2018-06-19T08:38:02.651Z,58.88
2018-06-19T08:40:31.335Z,60.84
2018-06-19T08:42:59.985Z,58.52
2018-06-19T08:45:28.654Z,60.21
2018-06-19T08:47:57.329Z,60.42
2018-06-19T08:50:26.049Z,59.94
2018-06-19T08:52:55.065Z,59.94
2018-06-19T08:55:23.760Z,59.70
2018-06-19T08:57:52.494Z,59.38
2018-06-19T09:00:21.245Z,57.49
2018-06-19T09:02:49.927Z,56.86
2018-06-19T09:05:18.803Z,58.20
2018-06-19T09:07:47.506Z,59.07
2018-06-19T09:10:16.530Z,55.45
2018-06-19T09:12:45.211Z,57.36
2018-06-19T09:15:13.857Z,57.89
2018-06-19T09:17:42.513Z,55.01
2018-06-19T09:20:11.254Z,54.45
2018-06-19T09:22:39.874Z,53.40
2018-06-19T09:25:08.557Z,53.84
2018-06-19T09:27:37.764Z,54.37
2018-06-19T09:30:06.619Z,54.05
2018-06-19T09:32:35.289Z,54.25
2018-06-19T09:35:04.080Z,54.37
2018-06-19T09:37:32.760Z,53.72
2018-06-19T09:40:01.460Z,54.04
2018-06-19T09:42:30.123Z,53.61
2018-06-19T09:44:58.878Z,53.22
2018-06-19T09:47:27.610Z,53.92
2018-06-19T09:49:56.326Z,54.60
2018-06-19T09:52:25.091Z,54.05
2018-06-19T09:54:54.041Z,54.20
2018-06-19T09:57:22.743Z,52.69
2018-06-19T09:59:51.557Z,51.77
2018-06-19T10:02:20.678Z,53.42
2018-06-19T10:04:49.538Z,53.64
2018-06-19T10:07:20.565Z,53.65
2018-06-19T10:09:50.275Z,53.81
2018-06-19T10:12:19.152Z,53.32
2018-06-19T10:14:47.810Z,52.72
2018-06-19T10:17:16.547Z,49.66
2018-06-19T10:19:45.254Z,50.20
2018-06-19T10:22:13.915Z,51.80
2018-06-19T10:24:42.606Z,49.84
2018-06-19T10:27:11.210Z,51.31
2018-06-19T10:29:39.855Z,48.97
2018-06-19T10:32:08.517Z,50.62
2018-06-19T10:34:37.141Z,48.73
2018-06-19T10:37:05.813Z,50.67
2018-06-19T10:39:34.557Z,49.54
2018-06-19T10:42:03.190Z,50.13
2018-06-19T10:44:31.942Z,48.68
2018-06-19T10:47:00.637Z,48.58
2018-06-19T10:49:29.290Z,49.00
2018-06-19T10:51:57.957Z,48.02
2018-06-19T10:54:26.581Z,47.15
2018-06-19T10:56:55.322Z,47.36
2018-06-19T10:59:23.996Z,47.32
2018-06-19T11:01:52.665Z,46.01
2018-06-19T11:04:21.310Z,46.18
2018-06-19T11:06:49.969Z,46.26
2018-06-19T11:09:18.650Z,46.12
2018-06-19T11:11:47.443Z,44.79
2018-06-19T11:14:16.131Z,44.64
2018-06-19T11:16:44.775Z,43.89
2018-06-19T11:19:13.419Z,46.22
2018-06-19T11:21:42.134Z,47.60
2018-06-19T11:24:10.741Z,47.50
2018-06-19T11:26:39.394Z,47.89
2018-06-19T11:29:08.105Z,46.80
2018-06-19T11:31:36.710Z,45.30
2018-06-19T11:34:05.380Z,47.79
2018-06-19T11:36:34.025Z,44.99
2018-06-19T11:39:02.762Z,43.96
2018-06-19T11:41:31.412Z,43.50
2018-06-19T11:44:00.138Z,43.49
2018-06-19T11:46:28.796Z,45.77
2018-06-19T11:48:57.431Z,45.30
2018-06-19T11:51:26.143Z,46.28
2018-06-19T11:53:54.820Z,44.45
2018-06-19T11:56:23.438Z,44.09
2018-06-19T11:58:52.877Z,43.87
2018-06-19T12:01:22.297Z,44.66
2018-06-19T12:03:51.229Z,46.87
2018-06-19T12:06:20.482Z,48.26
2018-06-19T12:08:49.149Z,48.95
2018-06-19T12:11:17.748Z,48.46
2018-06-19T12:13:46.449Z,45.69
2018-06-19T12:20:51.662Z,44.82
2018-06-19T12:23:20.447Z,45.41
2018-06-19T12:25:49.115Z,44.81
2018-06-19T12:28:17.826Z,44.09
2018-06-19T12:30:46.519Z,42.56
2018-06-19T12:33:15.193Z,41.42
2018-06-19T12:35:44.202Z,40.15
2018-06-19T12:38:13.137Z,40.24
2018-06-19T12:40:41.954Z,37.80
2018-06-19T12:43:10.626Z,38.91
2018-06-19T12:45:39.278Z,38.18
2018-06-19T12:48:07.926Z,38.40
2018-06-19T12:50:47.573Z,38.78
2018-06-19T12:53:27.083Z,37.76
2018-06-19T12:56:06.686Z,39.06
2018-06-19T12:58:35.390Z,37.49
2018-06-19T13:01:04.074Z,39.06
2018-06-19T13:03:43.670Z,37.70
2018-06-19T13:06:23.545Z,37.45
2018-06-19T13:08:52.198Z,35.81
2018-06-19T13:11:20.863Z,36.89
2018-06-19T13:14:00.506Z,38.84
2018-06-19T13:16:40.346Z,36.25
2018-06-19T13:19:24.284Z,35.53
2018-06-19T13:21:53.159Z,34.88
2018-06-19T13:24:22.302Z,36.08
2018-06-19T13:26:51.187Z,36.88
2018-06-19T13:29:43.270Z,35.88
2018-06-19T13:32:11.939Z,34.12
2018-06-19T13:34:40.690Z,32.41
2018-06-19T13:37:09.331Z,33.53
2018-06-19T13:39:38.837Z,33.79
2018-06-19T13:42:22.753Z,34.55
2018-06-19T13:44:58.166Z,35.07
2018-06-19T13:47:26.846Z,33.88
2018-06-19T13:49:55.525Z,34.64
2018-06-19T13:52:24.263Z,32.99
2018-06-19T13:54:53.155Z,34.94
2018-06-19T13:57:36.952Z,34.78
2018-06-19T14:00:08.934Z,35.29
2018-06-19T14:02:37.585Z,34.19
2018-06-19T14:05:07.037Z,34.65
2018-06-19T14:07:41.490Z,33.99
2018-06-19T14:10:25.828Z,34.16
2018-06-19T14:13:08.985Z,33.77
2018-06-19T14:15:46.651Z,36.06
2018-06-19T14:18:16.150Z,37.35
2018-06-19T14:20:44.925Z,39.15
2018-06-19T14:23:13.920Z,40.83
2018-06-19T14:25:42.641Z,39.65
2018-06-19T14:28:11.367Z,37.97
2018-06-19T14:30:40.033Z,39.50
2018-06-19T14:33:08.805Z,37.63
2018-06-19T14:35:37.438Z,36.51
2018-06-19T14:38:06.174Z,36.45
2018-06-19T14:40:34.874Z,37.27
2018-06-19T14:43:03.517Z,37.32
2018-06-19T14:45:32.119Z,37.87
2018-06-19T14:48:00.763Z,37.07
2018-06-19T14:50:29.438Z,35.33
2018-06-19T14:52:58.168Z,35.68
2018-06-19T14:55:26.855Z,35.07
2018-06-19T14:57:55.596Z,35.27
2018-06-19T15:00:24.865Z,36.82
2018-06-19T15:02:53.500Z,36.48
2018-06-19T15:05:22.123Z,38.74
2018-06-19T15:07:54.258Z,39.57
2018-06-19T15:10:23.396Z,38.95
2018-06-19T15:12:52.121Z,37.71
2018-06-19T15:15:20.832Z,36.86
2018-06-19T15:17:49.587Z,36.61
2018-06-19T15:20:18.532Z,37.51
2018-06-19T15:22:47.246Z,37.36
2018-06-19T15:25:15.908Z,37.12
2018-06-19T15:27:44.603Z,37.19
2018-06-19T15:30:13.279Z,37.64
2018-06-19T15:32:41.921Z,39.84
2018-06-19T15:35:10.566Z,39.79
2018-06-19T15:37:39.227Z,40.84
2018-06-19T15:40:07.947Z,40.73
2018-06-19T15:42:36.563Z,42.28
2018-06-19T15:45:05.274Z,43.56
2018-06-19T15:47:33.937Z,44.14
2018-06-19T15:50:02.618Z,44.54
2018-06-19T15:52:31.278Z,44.78
2018-06-19T15:54:59.919Z,44.38
2018-06-19T15:57:28.546Z,45.87
2018-06-19T15:59:57.226Z,45.60
2018-06-19T16:02:25.873Z,45.73
2018-06-19T16:04:54.651Z,43.92
2018-06-19T16:07:23.357Z,43.47
2018-06-19T16:09:52.006Z,44.41
2018-06-19T16:12:20.654Z,44.86
2018-06-19T16:14:49.384Z,46.46
2018-06-19T16:17:18.069Z,45.84
2018-06-19T16:19:46.783Z,47.26
2018-06-19T16:22:15.447Z,48.51
2018-06-19T16:24:44.081Z,47.89
2018-06-19T16:27:12.739Z,49.41
2018-06-19T16:29:41.389Z,48.11
2018-06-19T16:32:10.123Z,49.57
2018-06-19T16:34:38.777Z,48.07
2018-06-19T16:37:07.460Z,48.77
2018-06-19T16:39:36.091Z,47.66
2018-06-19T16:42:04.810Z,46.75
2018-06-19T16:44:33.434Z,47.62
2018-06-19T16:47:02.156Z,45.50
2018-06-19T16:49:31.996Z,45.56
2018-06-19T16:52:00.723Z,44.84
2018-06-19T16:54:29.375Z,46.59
2018-06-19T16:56:58.084Z,46.01
2018-06-19T16:59:26.850Z,45.38
2018-06-19T17:01:56.090Z,46.17
2018-06-19T17:04:24.823Z,46.34
2018-06-19T17:06:53.626Z,46.94
2018-06-19T17:09:22.284Z,46.28
2018-06-19T17:11:50.993Z,46.55
2018-06-19T18:53:31.850Z,60.79
2018-06-19T18:56:00.589Z,59.63
2018-06-19T18:58:29.547Z,59.32
2018-06-19T19:00:58.238Z,59.66
2018-06-19T19:03:26.922Z,59.93
2018-06-19T19:05:55.588Z,59.26
2018-06-19T19:08:25.382Z,59.40
2018-06-19T19:10:55.339Z,58.94
2018-06-19T19:13:25.296Z,59.05
2018-06-19T19:15:59.205Z,58.65
2018-06-19T19:18:33.079Z,59.47
2018-06-19T19:21:02.273Z,59.25
2018-06-19T19:23:31.314Z,59.58
2018-06-19T19:26:00.038Z,59.87
2018-06-19T19:30:39.820Z,59.81
2018-06-19T19:33:08.617Z,59.62
2018-06-19T19:35:37.275Z,59.15
2018-06-19T19:38:11.228Z,59.82
2018-06-19T19:40:39.974Z,59.43
2018-06-19T19:43:08.666Z,60.49
2018-06-19T19:45:37.338Z,60.42
2018-06-19T19:48:11.165Z,60.73
2018-06-19T19:50:39.882Z,62.33
2018-06-19T19:53:09.213Z,62.53
2018-06-19T19:55:41.997Z,62.16
2018-06-19T19:58:15.889Z,62.78
2018-06-19T20:00:44.673Z,62.95
2018-06-19T20:03:13.327Z,62.66
2018-06-19T20:05:42.064Z,61.84
2018-06-19T20:08:10.687Z,61.16
2018-06-19T20:10:39.377Z,60.97
2018-06-19T20:13:08.003Z,60.36
2018-06-19T20:15:36.786Z,60.23
2018-06-19T20:18:05.812Z,60.73
2018-06-19T20:20:35.095Z,61.34
2018-06-19T20:23:03.724Z,60.74
2018-06-19T20:25:32.535Z,60.63
2018-06-19T20:28:01.170Z,60.67
2018-06-19T20:30:29.962Z,60.57
2018-06-19T20:32:59.331Z,62.10
2018-06-19T20:35:28.000Z,63.40
2018-06-19T20:37:56.692Z,63.89
2018-06-19T20:40:26.392Z,63.40
2018-06-19T20:42:55.151Z,62.99
2018-06-19T20:45:23.928Z,63.09
2018-06-19T20:47:52.603Z,62.60
2018-06-19T20:50:21.277Z,62.24
2018-06-19T20:52:49.963Z,61.29
2018-06-19T20:55:18.617Z,62.10
2018-06-19T20:57:47.276Z,61.83
2018-06-19T21:00:15.974Z,62.38
2018-06-19T21:02:44.616Z,62.56
2018-06-19T21:05:13.309Z,62.66
2018-06-19T21:07:41.999Z,62.35
2018-06-19T21:10:10.607Z,62.81
2018-06-19T21:12:39.295Z,63.01
2018-06-19T21:15:07.987Z,63.35
2018-06-19T21:17:36.700Z,63.14
2018-06-19T21:20:05.358Z,63.18
2018-06-19T21:22:34.114Z,63.15
2018-06-19T21:25:02.840Z,62.57
2018-06-19T21:27:31.527Z,62.86
2018-06-19T21:30:00.277Z,62.72
2018-06-19T21:32:28.913Z,63.74
2018-06-19T21:34:57.666Z,63.34
2018-06-19T21:37:26.334Z,63.35
2018-06-19T21:39:54.962Z,63.42
2018-06-19T21:42:23.601Z,63.63
2018-06-19T21:44:52.225Z,63.84
2018-06-19T21:47:20.886Z,64.27
2018-06-19T21:49:49.560Z,64.54
2018-06-19T21:52:18.285Z,64.66
2018-06-19T21:54:46.967Z,64.48
2018-06-19T21:57:15.642Z,64.51
2018-06-19T21:59:44.499Z,63.50
2018-06-19T22:02:17.559Z,63.89
2018-06-19T22:04:46.176Z,63.54
2018-06-19T22:07:14.782Z,63.31
2018-06-19T22:09:43.406Z,63.24
2018-06-19T22:12:12.049Z,63.73
2018-06-19T22:14:40.761Z,63.43
2018-06-19T22:17:09.418Z,63.67
2018-06-19T22:19:38.084Z,63.71
2018-06-19T22:22:06.769Z,63.53
2018-06-19T22:24:35.455Z,64.01
2018-06-19T22:27:05.115Z,64.52
2018-06-19T22:29:33.766Z,64.41
2018-06-19T22:32:02.414Z,64.92
2018-06-19T22:34:31.134Z,64.95
2018-06-19T22:36:59.815Z,64.85
2018-06-19T22:39:28.688Z,65.78
2018-06-19T22:41:57.330Z,64.86
2018-06-19T22:44:26.062Z,64.87
2018-06-19T22:46:54.843Z,64.50
2018-06-19T22:49:23.524Z,64.21
2018-06-19T22:51:52.175Z,64.56
2018-06-19T22:54:21.119Z,64.59
2018-06-19T22:56:49.789Z,64.31
2018-06-19T22:59:18.478Z,64.56
2018-06-19T23:01:47.997Z,64.69
2018-06-19T23:04:16.647Z,63.77
2018-06-19T23:06:45.355Z,63.23
2018-06-19T23:09:13.990Z,63.25
2018-06-19T23:11:42.628Z,63.34
2018-06-19T23:14:11.277Z,63.39
2018-06-19T23:16:39.974Z,63.45
2018-06-19T23:19:08.656Z,63.44
2018-06-19T23:21:37.355Z,64.54
2018-06-19T23:24:05.957Z,65.21
2018-06-19T23:26:34.657Z,65.74
2018-06-19T23:29:03.422Z,66.00
2018-06-19T23:31:32.322Z,65.98
2018-06-19T23:34:01.047Z,66.28
2018-06-19T23:36:29.860Z,66.19
2018-06-19T23:38:58.542Z,66.30
2018-06-19T23:41:27.290Z,66.68
2018-06-19T23:43:55.929Z,66.85
2018-06-19T23:46:24.631Z,67.57
2018-06-19T23:48:53.262Z,67.55
2018-06-19T23:51:21.966Z,67.35
2018-06-19T23:53:50.635Z,68.74
2018-06-19T23:56:19.293Z,68.20
2018-06-19T23:58:47.982Z,68.16
